world map with NLWF marked

NLWF - Airport

This information may not be accurate or current and is not valid for navigation or flight planning. No warranty of fitness for any purpose is made or implied.

flag of Wallis and Futuna Islands

Donate via PayPal

Additional information is available on the NEW Great Circle Mapper

Location
City:  Futuna Island, Wallis and Futuna Islands
Near (Alt.):Maopoopo Īle Futuna
Name:Pointe Vele
ICAO / IATA:NLWF / FUT

Details
Type:Airport (Aerodrome, Airfield)
Latitude:14°18'41"S (-14.311388)
Longitude:178°03'58"W (-178.066110)
Elevation:20 ft (6 m)
Runways:unknown number
Longest:3051 ft (930 m)

Time
Timezone:UTC+12 (DST+14)
Local Time:

Weather
METAR:NLWF  (expired)
TAF:NLWF  202300Z 2100/2124 05008KT 9999 FEW018 TEMPO 2100/2124 4000 SHRA BKN014 FEW018CB PROB40 TEMPO 2112/2118 2000 +SHRA BKN010 SCT016TCU= TAF NLWW 202300Z 2100/2124 03005KT 9999 SCT016 BKN035 TEMPO 2100/2109 3000 +SHRA BKN014 SCT018CB PROB40 2100/2106 1500 TSRA BKN009 SCT015CB

Related Locations
Nearby:
Farthest:DRRU: 12439 mi / 20019 km
Ouallam [Ouallam Airport], NE

Find:

   beyond  
but within

Other Information
Maps:
Sources:

  


 


Great Circle Mapper   Great Circle Mapper
Great Circle Mapper FAQ   Great Circle Mapper FAQ
  Karl's Home Page
KLS²   KLS² Home
   GC on Facebook
Airlines of the World   Airlines of the World
Donate via PayPal


Copyright © 2004-2019, Karl L. Swartz. All rights reserved.
All trademarks mentioned herein belong to their respective owners.

Please see credits for attribution and copyright information.

Karl Swartz <karl@kls2.com>
  Powered by FreeBSD
Valid HTML 4.01!
Labeled with ICRA
hCard Microformat
Geo Microformat